Time,TemperatureF,DewpointF,PressureIn,WindDirection,WindDirectionDegrees,WindSpeedMPH,WindSpeedGustMPH,Humidity,HourlyPrecipIn,Conditions,Clouds,dailyrainin,SoftwareType,DateUTC
2013-01-15 00:00:00,66.8,63.5,30.10,ESE,113,0.0,0.0,89,0.00,,OVC,0.00,WeatherDisplay:10.37,2013-01-15 05:00:00,
2013-01-15 00:02:00,66.8,63.5,30.10,ESE,113,0.0,0.0,89,0.00,,OVC,0.00,WeatherDisplay:10.37,2013-01-15 05:02:00,
2013-01-15 00:07:00,66.6,63.3,30.10,ESE,113,0.0,0.0,89,0.00,,OVC,0.00,WeatherDisplay:10.37,2013-01-15 05:07:00,
2013-01-15 00:12:00,66.6,63.3,30.10,ESE,113,0.0,0.0,89,0.00,,OVC,0.00,WeatherDisplay:10.37,2013-01-15 05:12:00,
2013-01-15 00:17:00,66.6,63.3,30.10,ESE,113,0.0,0.0,89,0.00,,OVC,0.00,WeatherDisplay:10.37,2013-01-15 05:17:00,
2013-01-15 00:22:00,66.8,63.8,30.10,ESE,113,0.0,0.0,90,0.00,,OVC,0.00,WeatherDisplay:10.37,2013-01-15 05:22:00,
2013-01-15 00:27:00,66.8,63.8,30.10,ESE,113,0.0,0.0,90,0.00,,OVC,0.00,WeatherDisplay:10.37,2013-01-15 05:27:00,
2013-01-15 00:32:00,66.6,63.6,30.09,ESE,113,0.0,0.0,90,0.00,,OVC,0.00,WeatherDisplay:10.37,2013-01-15 05:32:00,
2013-01-15 00:37:00,66.4,63.4,30.09,ESE,113,0.0,0.0,90,0.00,,OVC,0.00,WeatherDisplay:10.37,2013-01-15 05:37:00,
2013-01-15 00:42:00,66.4,63.4,30.09,ESE,113,0.0,0.0,90,0.00,,OVC,0.00,WeatherDisplay:10.37,2013-01-15 05:42:00,
2013-01-15 00:47:00,66.3,63.3,30.09,ESE,113,0.0,0.0,90,0.00,,OVC,0.00,WeatherDisplay:10.37,2013-01-15 05:47:00,
2013-01-15 00:53:00,66.3,63.3,30.09,ESE,113,0.0,0.0,90,0.00,,OVC,0.00,WeatherDisplay:10.37,2013-01-15 05:53:00,
2013-01-15 00:58:00,66.8,64.1,30.09,ESE,113,0.0,0.0,91,0.00,,OVC,0.00,WeatherDisplay:10.37,2013-01-15 05:58:00,
2013-01-15 01:03:00,66.8,63.8,30.09,ESE,113,0.0,0.0,90,0.00,,OVC,0.00,WeatherDisplay:10.37,2013-01-15 06:03:00,
2013-01-15 01:08:00,66.4,63.4,30.09,ESE,113,0.0,0.0,90,0.00,,OVC,0.00,WeatherDisplay:10.37,2013-01-15 06:08:00,
2013-01-15 01:13:00,66.4,63.4,30.09,ESE,113,0.0,0.0,90,0.00,,OVC,0.00,WeatherDisplay:10.37,2013-01-15 06:13:00,
2013-01-15 01:18:00,66.3,63.6,30.09,ESE,113,0.0,0.0,91,0.00,,OVC,0.00,WeatherDisplay:10.37,2013-01-15 06:18:00,
2013-01-15 01:23:00,66.3,63.6,30.09,ESE,113,0.0,0.0,91,0.00,,OVC,0.00,WeatherDisplay:10.37,2013-01-15 06:23:00,
2013-01-15 01:28:00,66.3,63.6,30.09,ESE,113,0.0,0.0,91,0.00,,OVC,0.00,WeatherDisplay:10.37,2013-01-15 06:28:00,
2013-01-15 01:33:00,66.3,63.6,30.09,ESE,113,0.0,0.0,91,0.00,,OVC,0.00,WeatherDisplay:10.37,2013-01-15 06:33:00,
2013-01-15 01:38:00,66.3,63.6,30.09,ESE,113,0.0,0.0,91,0.00,,OVC,0.00,WeatherDisplay:10.37,2013-01-15 06:38:00,
2013-01-15 01:43:00,66.4,63.7,30.09,ESE,113,0.0,0.0,91,0.00,,OVC,0.00,WeatherDisplay:10.37,2013-01-15 06:43:00,
2013-01-15 01:48:00,66.4,63.7,30.09,ESE,113,0.0,0.0,91,0.00,,OVC,0.00,WeatherDisplay:10.37,2013-01-15 06:48:00,
2013-01-15 01:53:00,66.4,63.7,30.09,ESE,113,0.0,0.0,91,0.00,,OVC,0.00,WeatherDisplay:10.37,2013-01-15 06:53:00,
2013-01-15 01:58:00,66.3,63.6,30.09,ESE,113,0.0,0.0,91,0.00,,OVC,0.00,WeatherDisplay:10.37,2013-01-15 06:58:00,
2013-01-15 02:03:00,66.3,63.6,30.08,ESE,113,0.0,0.0,91,0.00,,OVC,0.00,WeatherDisplay:10.37,2013-01-15 07:03:00,
2013-01-15 02:08:00,66.0,63.3,30.08,ESE,113,0.0,0.0,91,0.00,,OVC,0.00,WeatherDisplay:10.37,2013-01-15 07:08:00,
2013-01-15 02:13:00,65.8,63.4,30.08,ESE,113,0.0,0.0,92,0.00,,OVC,0.00,WeatherDisplay:10.37,2013-01-15 07:13:00,
2013-01-15 02:18:00,66.0,63.6,30.08,ESE,113,0.0,0.0,92,0.00,,OVC,0.00,WeatherDisplay:10.37,2013-01-15 07:18:00,
2013-01-15 02:23:00,66.0,63.6,30.08,ESE,113,0.0,0.0,92,0.00,,OVC,0.00,WeatherDisplay:10.37,2013-01-15 07:23:00,
2013-01-15 02:28:00,66.0,63.6,30.08,ESE,113,0.0,0.0,92,0.00,,OVC,0.00,WeatherDisplay:10.37,2013-01-15 07:28:00,
2013-01-15 02:33:00,66.1,63.7,30.07,ESE,113,0.0,0.0,92,0.00,,OVC,0.00,WeatherDisplay:10.37,2013-01-15 07:33:00,
2013-01-15 02:38:00,66.3,63.9,30.07,ESE,113,0.0,0.0,92,0.00,,OVC,0.00,WeatherDisplay:10.37,2013-01-15 07:38:00,
2013-01-15 02:43:00,66.4,64.0,30.07,ESE,113,0.0,0.0,92,0.00,,OVC,0.00,WeatherDisplay:10.37,2013-01-15 07:43:00,
2013-01-15 02:48:00,66.4,64.0,30.07,ESE,113,0.0,0.0,92,0.00,,OVC,0.00,WeatherDisplay:10.37,2013-01-15 07:48:00,
2013-01-15 02:53:00,66.4,64.0,30.07,ESE,113,0.0,0.0,92,0.00,,OVC,0.00,WeatherDisplay:10.37,2013-01-15 07:53:00,
2013-01-15 02:58:00,66.4,64.0,30.07,ESE,113,0.0,0.0,92,0.00,,OVC,0.00,WeatherDisplay:10.37,2013-01-15 07:58:00,
2013-01-15 03:03:00,66.4,64.0,30.07,ESE,113,0.0,0.0,92,0.00,,OVC,0.00,WeatherDisplay:10.37,2013-01-15 08:03:00,
2013-01-15 03:08:00,66.6,64.2,30.07,ESE,113,0.0,0.0,92,0.00,,OVC,0.00,WeatherDisplay:10.37,2013-01-15 08:08:00,
2013-01-15 03:13:00,66.8,64.4,30.07,ESE,113,0.0,0.0,92,0.00,,OVC,0.00,WeatherDisplay:10.37,2013-01-15 08:13:00,
2013-01-15 03:18:00,67.1,65.0,30.07,ESE,113,0.0,0.0,93,0.00,,OVC,0.00,WeatherDisplay:10.37,2013-01-15 08:18:00,
2013-01-15 03:23:00,67.3,64.9,30.07,ESE,113,0.0,0.0,92,0.00,,OVC,0.00,WeatherDisplay:10.37,2013-01-15 08:23:00,
2013-01-15 03:28:00,67.3,64.9,30.07,ESE,113,0.0,0.0,92,0.00,,OVC,0.00,WeatherDisplay:10.37,2013-01-15 08:28:00,
2013-01-15 03:33:00,67.3,64.9,30.07,ESE,113,0.0,0.0,92,0.00,,OVC,0.00,WeatherDisplay:10.37,2013-01-15 08:33:00,
2013-01-15 03:38:00,67.3,64.9,30.07,ESE,113,0.0,0.0,92,0.00,,OVC,0.00,WeatherDisplay:10.37,2013-01-15 08:38:00,
2013-01-15 03:43:00,67.6,65.5,30.07,ESE,112,0.0,0.0,93,0.00,,OVC,0.00,WeatherDisplay:10.37,2013-01-15 08:43:00,
2013-01-15 03:48:00,68.1,66.0,30.06,ESE,112,0.0,0.0,93,0.00,,OVC,0.00,WeatherDisplay:10.37,2013-01-15 08:48:00,
2013-01-15 03:53:00,68.4,66.3,30.06,ESE,112,0.0,0.0,93,0.00,,OVC,0.00,WeatherDisplay:10.37,2013-01-15 08:53:00,
2013-01-15 03:58:00,68.4,66.3,30.06,ESE,112,0.0,0.0,93,0.00,,OVC,0.00,WeatherDisplay:10.37,2013-01-15 08:58:00,
2013-01-15 04:03:00,68.6,66.5,30.06,ESE,112,0.0,0.0,93,0.00,,OVC,0.00,WeatherDisplay:10.37,2013-01-15 09:03:00,
2013-01-15 04:08:00,68.8,66.7,30.06,ESE,112,0.0,0.0,93,0.00,,OVC,0.00,WeatherDisplay:10.37,2013-01-15 09:08:00,
2013-01-15 04:13:00,69.1,67.0,30.06,ESE,112,0.0,0.0,93,0.00,,OVC,0.00,WeatherDisplay:10.37,2013-01-15 09:13:00,
2013-01-15 04:18:00,69.4,67.3,30.06,ESE,112,0.0,0.0,93,0.00,,OVC,0.00,WeatherDisplay:10.37,2013-01-15 09:18:00,
2013-01-15 04:23:00,69.8,67.7,30.06,ESE,113,0.0,0.0,93,0.00,,OVC,0.00,WeatherDisplay:10.37,2013-01-15 09:23:00,
2013-01-15 04:28:00,69.8,67.7,30.06,ESE,113,0.0,0.0,93,0.00,,OVC,0.00,WeatherDisplay:10.37,2013-01-15 09:28:00,
2013-01-15 04:33:00,69.9,67.8,30.06,ESE,115,0.0,0.0,93,0.00,,OVC,0.00,WeatherDisplay:10.37,2013-01-15 09:33:00,
2013-01-15 04:38:00,69.9,67.5,30.06,ESE,114,0.0,0.0,92,0.00,,OVC,0.00,WeatherDisplay:10.37,2013-01-15 09:38:00,
2013-01-15 04:43:00,69.9,67.8,30.06,ESE,114,0.0,0.0,93,0.00,,OVC,0.00,WeatherDisplay:10.37,2013-01-15 09:43:00,
2013-01-15 04:48:00,69.9,67.5,30.06,ESE,114,0.0,0.0,92,0.00,,OVC,0.00,WeatherDisplay:10.37,2013-01-15 09:48:00,
2013-01-15 04:53:00,69.9,67.5,30.06,ESE,114,0.0,0.0,92,0.00,,OVC,0.00,WeatherDisplay:10.37,2013-01-15 09:53:00,
2013-01-15 04:58:00,69.9,67.5,30.06,ESE,114,0.0,0.0,92,0.00,,OVC,0.00,WeatherDisplay:10.37,2013-01-15 09:58:00,
2013-01-15 05:03:00,69.9,67.5,30.06,ESE,114,0.0,0.0,92,0.00,,OVC,0.00,WeatherDisplay:10.37,2013-01-15 10:03:00,
2013-01-15 05:08:00,69.9,67.5,30.06,ESE,114,0.0,0.0,92,0.00,,OVC,0.00,WeatherDisplay:10.37,2013-01-15 10:08:00,
2013-01-15 05:13:00,69.9,67.5,30.06,ESE,114,0.0,0.0,92,0.00,,OVC,0.00,WeatherDisplay:10.37,2013-01-15 10:13:00,
2013-01-15 05:18:00,69.9,67.5,30.06,ESE,114,0.0,0.0,92,0.00,,OVC,0.00,WeatherDisplay:10.37,2013-01-15 10:18:00,
2013-01-15 05:23:00,69.9,67.5,30.06,ESE,114,0.0,0.0,92,0.00,,OVC,0.00,WeatherDisplay:10.37,2013-01-15 10:23:00,
2013-01-15 05:28:00,69.9,67.5,30.06,ESE,114,0.0,0.0,92,0.00,,OVC,0.00,WeatherDisplay:10.37,2013-01-15 10:28:00,
2013-01-15 05:33:00,69.9,67.5,30.06,ESE,114,0.0,0.0,92,0.00,,OVC,0.00,WeatherDisplay:10.37,2013-01-15 10:33:00,
2013-01-15 05:38:00,69.8,67.4,30.06,ESE,114,0.0,0.0,92,0.00,,OVC,0.00,WeatherDisplay:10.37,2013-01-15 10:38:00,
2013-01-15 05:44:00,69.8,67.4,30.06,ESE,114,0.0,0.0,92,0.00,,OVC,0.00,WeatherDisplay:10.37,2013-01-15 10:44:00,
2013-01-15 05:49:00,69.8,67.4,30.07,ESE,114,0.0,0.0,92,0.00,,OVC,0.00,WeatherDisplay:10.37,2013-01-15 10:49:00,
2013-01-15 05:54:00,69.8,67.4,30.07,ESE,114,0.0,0.0,92,0.00,,OVC,0.00,WeatherDisplay:10.37,2013-01-15 10:54:00,
2013-01-15 05:59:00,69.9,67.5,30.07,SE,128,0.0,0.0,92,0.00,,OVC,0.00,WeatherDisplay:10.37,2013-01-15 10:59:00,
2013-01-15 06:04:00,70.1,67.7,30.07,SE,128,0.0,0.0,92,0.00,,OVC,0.00,WeatherDisplay:10.37,2013-01-15 11:04:00,
2013-01-15 06:09:00,70.3,67.9,30.07,SE,128,0.0,0.0,92,0.00,,OVC,0.00,WeatherDisplay:10.37,2013-01-15 11:09:00,
2013-01-15 06:14:00,70.3,67.9,30.07,SE,128,0.0,0.0,92,0.00,,OVC,0.00,WeatherDisplay:10.37,2013-01-15 11:14:00,
2013-01-15 06:19:00,70.4,67.6,30.07,SE,128,0.0,0.0,91,0.00,,OVC,0.00,WeatherDisplay:10.37,2013-01-15 11:19:00,
2013-01-15 06:24:00,70.3,67.5,30.07,SE,128,0.0,0.0,91,0.00,,OVC,0.00,WeatherDisplay:10.37,2013-01-15 11:24:00,
2013-01-15 06:29:00,70.3,67.5,30.07,SE,128,0.0,0.0,91,0.00,,OVC,0.00,WeatherDisplay:10.37,2013-01-15 11:29:00,
2013-01-15 06:34:00,70.1,67.3,30.07,SE,128,0.0,0.0,91,0.00,,OVC,0.00,WeatherDisplay:10.37,2013-01-15 11:34:00,
2013-01-15 06:39:00,69.9,67.2,30.07,SE,128,0.0,0.0,91,0.00,,OVC,0.00,WeatherDisplay:10.37,2013-01-15 11:39:00,
2013-01-15 06:44:00,69.8,67.1,30.07,SE,128,0.0,0.0,91,0.00,,OVC,0.00,WeatherDisplay:10.37,2013-01-15 11:44:00,
2013-01-15 06:49:00,69.6,66.9,30.07,SE,128,0.0,0.0,91,0.00,,OVC,0.00,WeatherDisplay:10.37,2013-01-15 11:49:00,
2013-01-15 06:54:00,69.6,66.9,30.07,SE,128,0.0,0.0,91,0.00,,OVC,0.00,WeatherDisplay:10.37,2013-01-15 11:54:00,
2013-01-15 06:59:00,69.6,66.9,30.07,SE,128,0.0,0.0,91,0.00,,OVC,0.00,WeatherDisplay:10.37,2013-01-15 11:59:00,
2013-01-15 07:04:00,69.4,66.7,30.07,SE,128,0.0,0.0,91,0.00,,OVC,0.00,WeatherDisplay:10.37,2013-01-15 12:04:00,
2013-01-15 07:09:00,69.4,66.7,30.07,SE,128,0.0,0.0,91,0.00,,OVC,0.00,WeatherDisplay:10.37,2013-01-15 12:09:00,
2013-01-15 07:14:00,69.4,66.7,30.07,SE,128,0.0,0.0,91,0.00,,OVC,0.00,WeatherDisplay:10.37,2013-01-15 12:14:00,
2013-01-15 07:19:00,69.4,67.0,30.08,SE,128,0.0,0.0,92,0.00,,OVC,0.00,WeatherDisplay:10.37,2013-01-15 12:19:00,
2013-01-15 07:24:00,69.4,67.0,30.08,SE,128,0.0,0.0,92,0.00,,OVC,0.00,WeatherDisplay:10.37,2013-01-15 12:24:00,
2013-01-15 07:29:00,69.4,67.0,30.08,SE,128,0.0,0.0,92,0.00,,OVC,0.00,WeatherDisplay:10.37,2013-01-15 12:29:00,
2013-01-15 07:34:00,69.6,67.2,30.08,SE,128,0.0,0.0,92,0.00,,OVC,0.00,WeatherDisplay:10.37,2013-01-15 12:34:00,
2013-01-15 07:39:00,69.6,67.2,30.08,SE,128,0.0,0.0,92,0.00,,OVC,0.00,WeatherDisplay:10.37,2013-01-15 12:39:00,
2013-01-15 07:44:00,69.6,67.2,30.09,SE,128,0.0,0.0,92,0.00,,OVC,0.00,WeatherDisplay:10.37,2013-01-15 12:44:00,
2013-01-15 07:49:00,69.6,67.2,30.09,SE,128,0.0,0.0,92,0.00,,OVC,0.00,WeatherDisplay:10.37,2013-01-15 12:49:00,
2013-01-15 07:54:00,69.8,67.4,30.09,SE,128,0.0,0.0,92,0.00,,OVC,0.00,WeatherDisplay:10.37,2013-01-15 12:54:00,
2013-01-15 07:59:00,69.8,67.4,30.09,SE,128,0.0,0.0,92,0.00,,OVC,0.00,WeatherDisplay:10.37,2013-01-15 12:59:00,
2013-01-15 08:04:00,69.9,67.5,30.09,SE,128,0.0,0.0,92,0.00,,OVC,0.00,WeatherDisplay:10.37,2013-01-15 13:04:00,
2013-01-15 08:09:00,70.1,67.7,30.09,SE,128,0.0,0.0,92,0.00,,OVC,0.00,WeatherDisplay:10.37,2013-01-15 13:09:00,
2013-01-15 08:14:00,70.1,67.7,30.09,SE,128,0.0,0.0,92,0.00,,OVC,0.00,WeatherDisplay:10.37,2013-01-15 13:14:00,
2013-01-15 08:19:00,70.4,68.0,30.09,SE,128,0.0,0.0,92,0.00,,OVC,0.00,WeatherDisplay:10.37,2013-01-15 13:19:00,
2013-01-15 08:24:00,70.8,68.4,30.09,SE,128,0.0,0.0,92,0.00,,OVC,0.00,WeatherDisplay:10.37,2013-01-15 13:24:00,
2013-01-15 08:29:00,71.1,68.7,30.10,SE,128,0.0,0.0,92,0.00,,OVC,0.00,WeatherDisplay:10.37,2013-01-15 13:29:00,
2013-01-15 08:34:00,71.5,68.4,30.10,SE,129,0.0,0.0,90,0.00,,OVC,0.00,WeatherDisplay:10.37,2013-01-15 13:34:00,
2013-01-15 08:39:00,72.1,68.3,30.10,SE,130,0.0,0.0,88,0.00,,OVC,0.00,WeatherDisplay:10.37,2013-01-15 13:39:00,
2013-01-15 08:44:00,72.5,68.1,30.10,SE,132,0.0,0.0,86,0.00,,OVC,0.00,WeatherDisplay:10.37,2013-01-15 13:44:00,
2013-01-15 08:49:00,72.7,67.2,30.10,SE,135,0.0,0.0,83,0.00,,OVC,0.00,WeatherDisplay:10.37,2013-01-15 13:49:00,
2013-01-15 08:54:00,73.2,67.0,30.10,SE,130,0.0,0.0,81,0.00,,OVC,0.00,WeatherDisplay:10.37,2013-01-15 13:54:00,
2013-01-15 08:59:00,73.5,66.9,30.10,SE,131,0.0,0.0,80,0.00,,OVC,0.00,WeatherDisplay:10.37,2013-01-15 13:59:00,
2013-01-15 09:04:00,73.9,67.0,30.10,SE,133,0.0,0.0,79,0.00,,OVC,0.00,WeatherDisplay:10.37,2013-01-15 14:04:00,
2013-01-15 09:09:00,74.2,67.3,30.10,ESE,122,0.0,0.0,79,0.00,,OVC,0.00,WeatherDisplay:10.37,2013-01-15 14:09:00,
2013-01-15 09:14:00,74.2,66.5,30.10,ENE,74,0.0,0.0,77,0.00,,OVC,0.00,WeatherDisplay:10.37,2013-01-15 14:14:00,
2013-01-15 09:19:00,74.6,66.9,30.10,East,80,0.0,0.0,77,0.00,,OVC,0.00,WeatherDisplay:10.37,2013-01-15 14:19:00,
2013-01-15 09:24:00,74.7,66.6,30.10,ENE,65,0.0,0.0,76,0.00,,OVC,0.00,WeatherDisplay:10.37,2013-01-15 14:24:00,
2013-01-15 09:29:00,74.9,66.4,30.10,East,87,0.0,0.0,75,0.00,,OVC,0.00,WeatherDisplay:10.37,2013-01-15 14:29:00,
2013-01-15 09:34:00,75.3,66.8,30.10,ESE,119,3.5,0.0,75,0.00,,OVC,0.00,WeatherDisplay:10.37,2013-01-15 14:34:00,
2013-01-15 09:39:00,75.3,66.8,30.10,SE,129,0.0,0.0,75,0.00,,OVC,0.00,WeatherDisplay:10.37,2013-01-15 14:39:00,
2013-01-15 09:44:00,75.4,66.9,30.10,ENE,69,0.0,0.0,75,0.00,,OVC,0.00,WeatherDisplay:10.37,2013-01-15 14:44:00,
2013-01-15 09:49:00,75.4,66.9,30.10,SE,131,12.7,12.7,75,0.00,,OVC,0.00,WeatherDisplay:10.37,2013-01-15 14:49:00,
2013-01-15 09:54:00,75.4,66.9,30.10,SE,128,0.0,0.0,75,0.00,,OVC,0.00,WeatherDisplay:10.37,2013-01-15 14:54:00,
2013-01-15 09:59:00,75.3,66.4,30.10,SE,138,5.8,5.8,74,0.00,,OVC,0.00,WeatherDisplay:10.37,2013-01-15 14:59:00,
2013-01-15 10:04:00,75.4,66.5,30.10,SE,140,10.0,10.0,74,0.00,,OVC,0.00,WeatherDisplay:10.37,2013-01-15 15:04:00,
2013-01-15 10:09:00,75.3,66.4,30.10,SE,143,6.9,6.9,74,0.00,,OVC,0.00,WeatherDisplay:10.37,2013-01-15 15:09:00,
2013-01-15 10:14:00,75.4,66.9,30.10,SE,140,0.0,0.0,75,0.00,,OVC,0.00,WeatherDisplay:10.37,2013-01-15 15:14:00,
2013-01-15 10:19:00,75.6,67.1,30.10,ESE,117,5.8,0.0,75,0.00,,OVC,0.00,WeatherDisplay:10.37,2013-01-15 15:19:00,
2013-01-15 10:24:00,76.0,67.1,30.10,SE,142,6.9,0.0,74,0.00,,OVC,0.00,WeatherDisplay:10.37,2013-01-15 15:24:00,
2013-01-15 10:29:00,76.0,67.1,30.10,ESE,120,3.5,3.5,74,0.00,,OVC,0.00,WeatherDisplay:10.37,2013-01-15 15:29:00,
2013-01-15 10:34:00,76.1,67.2,30.10,SE,132,0.0,0.1,74,0.00,,OVC,0.00,WeatherDisplay:10.37,2013-01-15 15:34:00,
2013-01-15 10:39:00,76.1,66.8,30.10,NE,46,1.1,0.0,73,0.00,,OVC,0.00,WeatherDisplay:10.37,2013-01-15 15:39:00,
2013-01-15 10:44:00,76.3,67.0,30.09,East,94,11.0,11.0,73,0.00,,OVC,0.00,WeatherDisplay:10.37,2013-01-15 15:44:00,
2013-01-15 10:49:00,76.3,66.6,30.09,SE,130,1.1,0.0,72,0.00,,OVC,0.00,WeatherDisplay:10.37,2013-01-15 15:49:00,
2013-01-15 10:54:00,76.3,66.6,30.09,SE,146,10.4,0.0,72,0.00,,OVC,0.00,WeatherDisplay:10.37,2013-01-15 15:54:00,
2013-01-15 10:59:00,76.3,66.6,30.09,East,88,0.0,0.0,72,0.00,,OVC,0.00,WeatherDisplay:10.37,2013-01-15 15:59:00,
2013-01-15 11:05:00,76.1,66.4,30.09,ESE,111,3.0,3.0,72,0.00,,OVC,0.00,WeatherDisplay:10.37,2013-01-15 16:05:00,
2013-01-15 11:10:00,76.0,66.7,30.09,ESE,122,14.0,14.0,73,0.00,,OVC,0.00,WeatherDisplay:10.37,2013-01-15 16:10:00,
2013-01-15 11:15:00,76.0,66.7,30.08,SE,142,0.0,3.6,73,0.00,,OVC,0.00,WeatherDisplay:10.37,2013-01-15 16:15:00,
2013-01-15 11:20:00,76.0,66.7,30.08,SE,140,21.9,0.0,73,0.00,,OVC,0.00,WeatherDisplay:10.37,2013-01-15 16:20:00,
2013-01-15 11:25:00,76.1,66.4,30.08,ESE,119,5.0,0.0,72,0.00,,OVC,0.00,WeatherDisplay:10.37,2013-01-15 16:25:00,
2013-01-15 11:30:00,76.3,66.6,30.08,ESE,112,18.0,18.0,72,0.00,,OVC,0.00,WeatherDisplay:10.37,2013-01-15 16:30:00,
2013-01-15 11:35:00,76.5,66.4,30.08,SE,146,8.1,8.1,71,0.00,,OVC,0.00,WeatherDisplay:10.37,2013-01-15 16:35:00,
2013-01-15 11:40:00,76.7,66.6,30.08,SE,124,20.0,20.0,71,0.00,,OVC,0.00,WeatherDisplay:10.37,2013-01-15 16:40:00,
2013-01-15 11:45:00,76.7,66.6,30.07,SE,137,0.0,0.0,71,0.00,,OVC,0.00,WeatherDisplay:10.37,2013-01-15 16:45:00,
2013-01-15 11:50:00,76.8,66.7,30.07,SE,143,3.5,0.0,71,0.00,,OVC,0.00,WeatherDisplay:10.37,2013-01-15 16:50:00,
2013-01-15 11:55:00,76.8,66.3,30.07,ESE,120,4.6,4.6,70,0.00,,OVC,0.00,WeatherDisplay:10.37,2013-01-15 16:55:00,
2013-01-15 12:00:00,76.8,66.7,30.07,SE,132,6.9,0.0,71,0.00,,OVC,0.00,WeatherDisplay:10.37,2013-01-15 17:00:00,
2013-01-15 12:05:00,76.8,66.7,30.07,ESE,114,0.0,0.0,71,0.00,,OVC,0.00,WeatherDisplay:10.37,2013-01-15 17:05:00,
2013-01-15 12:10:00,76.7,65.8,30.07,SE,144,23.0,23.0,69,0.00,,OVC,0.00,WeatherDisplay:10.37,2013-01-15 17:10:00,
2013-01-15 12:15:00,76.7,65.8,30.06,SE,132,11.5,11.5,69,0.00,,OVC,0.00,WeatherDisplay:10.37,2013-01-15 17:15:00,
2013-01-15 12:20:00,76.7,65.8,30.06,ESE,119,5.8,5.8,69,0.00,,OVC,0.00,WeatherDisplay:10.37,2013-01-15 17:20:00,
2013-01-15 12:25:00,76.7,65.3,30.06,SE,134,0.0,0.3,68,0.00,,OVC,0.00,WeatherDisplay:10.37,2013-01-15 17:25:00,
2013-01-15 12:30:00,76.8,65.0,30.06,ESE,116,10.0,10.0,67,0.00,,OVC,0.00,WeatherDisplay:10.37,2013-01-15 17:30:00,
2013-01-15 12:35:00,77.0,65.2,30.06,SE,124,0.0,0.0,67,0.00,,OVC,0.00,WeatherDisplay:10.37,2013-01-15 17:35:00,
2013-01-15 12:40:00,77.2,65.8,30.06,SE,138,7.0,7.0,68,0.00,,OVC,0.00,WeatherDisplay:10.37,2013-01-15 17:40:00,
2013-01-15 12:45:00,77.0,65.6,30.05,SE,131,9.2,9.2,68,0.00,,OVC,0.00,WeatherDisplay:10.37,2013-01-15 17:45:00,
2013-01-15 12:50:00,77.0,65.6,30.05,East,98,3.5,3.5,68,0.00,,OVC,0.00,WeatherDisplay:10.37,2013-01-15 17:50:00,
2013-01-15 12:55:00,76.8,65.9,30.05,SE,125,0.0,0.0,69,0.00,,OVC,0.00,WeatherDisplay:10.37,2013-01-15 17:55:00,
2013-01-15 13:00:00,77.0,66.0,30.05,SE,141,0.0,0.0,69,0.00,,OVC,0.00,WeatherDisplay:10.37,2013-01-15 18:00:00,
2013-01-15 13:05:00,77.2,65.8,30.05,SE,140,1.1,0.0,68,0.00,,OVC,0.00,WeatherDisplay:10.37,2013-01-15 18:05:00,
2013-01-15 13:10:00,77.2,65.4,30.05,SE,136,13.8,13.8,67,0.00,,OVC,0.00,WeatherDisplay:10.37,2013-01-15 18:10:00,
2013-01-15 13:15:00,77.4,65.6,30.04,SE,138,0.0,0.0,67,0.00,,OVC,0.00,WeatherDisplay:10.37,2013-01-15 18:15:00,
2013-01-15 13:20:00,77.4,66.0,30.04,NE,35,4.6,4.6,68,0.00,,OVC,0.00,WeatherDisplay:10.37,2013-01-15 18:20:00,
2013-01-15 13:25:00,77.4,65.6,30.04,ESE,105,3.5,3.5,67,0.00,,OVC,0.00,WeatherDisplay:10.37,2013-01-15 18:25:00,
2013-01-15 13:30:00,77.2,65.0,30.04,ESE,109,0.0,0.0,66,0.00,,OVC,0.00,WeatherDisplay:10.37,2013-01-15 18:30:00,
2013-01-15 13:35:00,77.2,65.4,30.04,ESE,102,0.0,0.0,67,0.00,,OVC,0.00,WeatherDisplay:10.37,2013-01-15 18:35:00,
2013-01-15 13:40:00,77.4,65.6,30.04,ENE,57,18.4,18.4,67,0.00,,OVC,0.00,WeatherDisplay:10.37,2013-01-15 18:40:00,
2013-01-15 13:45:00,77.4,65.6,30.04,ESE,119,9.2,9.2,67,0.00,,OVC,0.00,WeatherDisplay:10.37,2013-01-15 18:45:00,
2013-01-15 13:50:00,77.4,65.1,30.04,SE,138,16.1,16.1,66,0.00,,OVC,0.00,WeatherDisplay:10.37,2013-01-15 18:50:00,
2013-01-15 13:55:00,77.6,65.8,30.04,NE,46,2.0,2.0,67,0.00,,OVC,0.00,WeatherDisplay:10.37,2013-01-15 18:55:00,
2013-01-15 14:00:00,77.6,65.3,30.04,NE,44,6.0,6.0,66,0.00,,OVC,0.00,WeatherDisplay:10.37,2013-01-15 19:00:00,
2013-01-15 14:05:00,77.6,65.3,30.04,ESE,103,3.5,3.5,66,0.00,,OVC,0.00,WeatherDisplay:10.37,2013-01-15 19:05:00,
2013-01-15 14:10:00,77.6,65.3,30.04,East,98,4.6,4.6,66,0.00,,OVC,0.00,WeatherDisplay:10.37,2013-01-15 19:10:00,
2013-01-15 14:15:00,77.6,66.2,30.04,ENE,70,13.8,13.8,68,0.00,,OVC,0.00,WeatherDisplay:10.37,2013-01-15 19:15:00,
2013-01-15 14:20:00,77.2,66.2,30.04,NNE,17,4.6,4.6,69,0.00,,OVC,0.00,WeatherDisplay:10.37,2013-01-15 19:20:00,
2013-01-15 14:25:00,76.8,65.9,30.04,ENE,65,17.3,17.3,69,0.00,,OVC,0.00,WeatherDisplay:10.37,2013-01-15 19:25:00,
2013-01-15 14:30:00,76.5,66.0,30.04,ENE,60,6.9,6.9,70,0.00,,OVC,0.00,WeatherDisplay:10.37,2013-01-15 19:30:00,
2013-01-15 14:35:00,76.5,66.0,30.04,ENE,65,0.0,0.0,70,0.00,,OVC,0.00,WeatherDisplay:10.37,2013-01-15 19:35:00,
2013-01-15 14:40:00,76.5,66.0,30.04,ESE,103,1.1,1.1,70,0.00,,OVC,0.00,WeatherDisplay:10.37,2013-01-15 19:40:00,
2013-01-15 14:45:00,76.7,65.3,30.03,NE,54,0.0,0.0,68,0.00,,OVC,0.00,WeatherDisplay:10.37,2013-01-15 19:45:00,
2013-01-15 14:50:00,76.8,65.4,30.03,SSE,150,7.0,7.0,68,0.00,,OVC,0.00,WeatherDisplay:10.37,2013-01-15 19:50:00,
2013-01-15 14:55:00,76.8,65.4,30.03,East,97,0.0,0.0,68,0.00,,OVC,0.00,WeatherDisplay:10.37,2013-01-15 19:55:00,
2013-01-15 15:00:00,77.4,66.0,30.03,ENE,61,1.1,0.0,68,0.00,,OVC,0.00,WeatherDisplay:10.37,2013-01-15 20:00:00,
2013-01-15 15:05:00,78.5,66.2,30.03,SSE,150,20.7,20.7,66,0.00,,OVC,0.00,WeatherDisplay:10.37,2013-01-15 20:05:00,
2013-01-15 15:10:00,78.6,65.4,30.03,ESE,105,26.5,26.5,64,0.00,,OVC,0.00,WeatherDisplay:10.37,2013-01-15 20:10:00,
2013-01-15 15:15:00,78.8,65.6,30.03,NE,52,6.9,6.9,64,0.00,,OVC,0.00,WeatherDisplay:10.37,2013-01-15 20:15:00,
2013-01-15 15:20:00,79.0,65.8,30.03,NE,55,15.0,15.0,64,0.00,,OVC,0.00,WeatherDisplay:10.37,2013-01-15 20:20:00,
2013-01-15 15:25:00,79.0,65.3,30.03,ENE,63,7.0,7.0,63,0.00,,OVC,0.00,WeatherDisplay:10.37,2013-01-15 20:25:00,
2013-01-15 15:30:00,79.0,65.8,30.03,ESE,117,5.8,5.8,64,0.00,,OVC,0.00,WeatherDisplay:10.37,2013-01-15 20:30:00,
2013-01-15 15:35:00,79.0,65.8,30.03,ENE,61,11.5,11.5,64,0.00,,OVC,0.00,WeatherDisplay:10.37,2013-01-15 20:35:00,
2013-01-15 15:40:00,79.0,65.8,30.03,SSE,154,11.5,11.5,64,0.00,,OVC,0.00,WeatherDisplay:10.37,2013-01-15 20:40:00,
2013-01-15 15:45:00,79.0,65.8,30.03,SSE,158,21.9,21.9,64,0.00,,OVC,0.00,WeatherDisplay:10.37,2013-01-15 20:45:00,
2013-01-15 15:50:00,78.8,65.6,30.03,SSE,149,13.8,13.8,64,0.00,,OVC,0.00,WeatherDisplay:10.37,2013-01-15 20:50:00,
2013-01-15 15:55:00,78.3,65.6,30.03,East,86,8.1,8.1,65,0.00,,OVC,0.00,WeatherDisplay:10.37,2013-01-15 20:55:00,
2013-01-15 16:00:00,78.3,65.6,30.04,East,101,8.1,8.1,65,0.00,,OVC,0.00,WeatherDisplay:10.37,2013-01-15 21:00:00,
2013-01-15 16:05:00,78.3,66.0,30.04,ENE,71,8.0,8.0,66,0.00,,OVC,0.00,WeatherDisplay:10.37,2013-01-15 21:05:00,
2013-01-15 16:10:00,77.7,65.4,30.04,ENE,59,9.2,9.2,66,0.00,,OVC,0.00,WeatherDisplay:10.37,2013-01-15 21:10:00,
2013-01-15 16:15:00,77.6,65.3,30.04,ENE,77,8.1,8.1,66,0.00,,OVC,0.00,WeatherDisplay:10.37,2013-01-15 21:15:00,
2013-01-15 16:21:00,77.6,65.3,30.04,ESE,115,6.9,6.9,66,0.00,,OVC,0.00,WeatherDisplay:10.37,2013-01-15 21:21:00,
2013-01-15 16:26:00,77.9,65.2,30.04,East,83,6.9,6.9,65,0.00,,OVC,0.00,WeatherDisplay:10.37,2013-01-15 21:26:00,
2013-01-15 16:31:00,77.7,65.0,30.04,SE,141,6.0,6.0,65,0.00,,OVC,0.00,WeatherDisplay:10.37,2013-01-15 21:31:00,
2013-01-15 16:36:00,77.6,65.3,30.04,ENE,74,12.7,0.0,66,0.00,,OVC,0.00,WeatherDisplay:10.37,2013-01-15 21:36:00,
2013-01-15 16:41:00,77.6,65.3,30.04,ENE,77,0.0,0.7,66,0.00,,OVC,0.00,WeatherDisplay:10.37,2013-01-15 21:41:00,
2013-01-15 16:46:00,77.4,65.6,30.05,East,80,8.1,8.1,67,0.00,,OVC,0.00,WeatherDisplay:10.37,2013-01-15 21:46:00,
2013-01-15 16:51:00,77.2,65.4,30.05,NE,47,3.5,0.0,67,0.00,,OVC,0.00,WeatherDisplay:10.37,2013-01-15 21:51:00,
2013-01-15 16:56:00,76.8,65.4,30.05,NE,39,8.1,8.1,68,0.00,,OVC,0.00,WeatherDisplay:10.37,2013-01-15 21:56:00,
2013-01-15 17:01:00,76.7,65.3,30.05,SE,132,11.5,0.0,68,0.00,,OVC,0.00,WeatherDisplay:10.37,2013-01-15 22:01:00,
2013-01-15 17:06:00,76.5,65.1,30.05,ENE,67,11.5,11.5,68,0.00,,OVC,0.00,WeatherDisplay:10.37,2013-01-15 22:06:00,
2013-01-15 17:11:00,76.1,64.8,30.05,ENE,68,13.8,0.0,68,0.00,,OVC,0.00,WeatherDisplay:10.37,2013-01-15 22:11:00,
2013-01-15 17:16:00,75.8,64.9,30.05,SSE,151,2.3,2.3,69,0.00,,OVC,0.00,WeatherDisplay:10.37,2013-01-15 22:16:00,
2013-01-15 17:21:00,75.6,64.7,30.05,East,95,0.0,0.0,69,0.00,,OVC,0.00,WeatherDisplay:10.37,2013-01-15 22:21:00,
2013-01-15 17:26:00,75.4,64.9,30.05,East,90,0.0,0.0,70,0.00,,OVC,0.00,WeatherDisplay:10.37,2013-01-15 22:26:00,
2013-01-15 17:31:00,75.1,64.6,30.06,NE,56,0.0,0.0,70,0.00,,OVC,0.00,WeatherDisplay:10.37,2013-01-15 22:31:00,
2013-01-15 17:36:00,74.9,64.9,30.06,NNE,13,1.1,1.1,71,0.00,,OVC,0.00,WeatherDisplay:10.37,2013-01-15 22:36:00,
2013-01-15 17:41:00,74.7,64.7,30.06,ENE,59,0.0,0.0,71,0.00,,OVC,0.00,WeatherDisplay:10.37,2013-01-15 22:41:00,
2013-01-15 17:46:00,74.6,65.0,30.06,NNE,29,1.1,1.1,72,0.00,,OVC,0.00,WeatherDisplay:10.37,2013-01-15 22:46:00,
2013-01-15 17:51:00,74.4,64.8,30.06,ENE,57,0.0,0.0,72,0.00,,OVC,0.00,WeatherDisplay:10.37,2013-01-15 22:51:00,
2013-01-15 17:56:00,74.0,64.8,30.06,NE,56,0.0,0.0,73,0.00,,OVC,0.00,WeatherDisplay:10.37,2013-01-15 22:56:00,
2013-01-15 18:01:00,73.9,64.7,30.06,ENE,70,13.8,13.8,73,0.00,,OVC,0.00,WeatherDisplay:10.37,2013-01-15 23:01:00,
2013-01-15 18:06:00,73.9,64.7,30.06,ENE,67,2.3,0.0,73,0.00,,OVC,0.00,WeatherDisplay:10.37,2013-01-15 23:06:00,
2013-01-15 18:11:00,73.7,64.9,30.06,ENE,67,0.0,0.0,74,0.00,,OVC,0.00,WeatherDisplay:10.37,2013-01-15 23:11:00,
2013-01-15 18:16:00,73.5,64.7,30.07,East,83,6.9,6.9,74,0.00,,OVC,0.00,WeatherDisplay:10.37,2013-01-15 23:16:00,
2013-01-15 18:21:00,73.3,64.9,30.07,East,82,0.0,0.0,75,0.00,,OVC,0.00,WeatherDisplay:10.37,2013-01-15 23:21:00,
2013-01-15 18:26:00,73.2,64.8,30.07,East,81,0.0,0.0,75,0.00,,OVC,0.00,WeatherDisplay:10.37,2013-01-15 23:26:00,
2013-01-15 18:31:00,73.0,64.6,30.06,ENE,78,0.0,0.0,75,0.00,,OVC,0.00,WeatherDisplay:10.37,2013-01-15 23:31:00,
2013-01-15 18:36:00,72.8,64.8,30.06,ENE,78,0.0,0.0,76,0.00,,OVC,0.00,WeatherDisplay:10.37,2013-01-15 23:36:00,
2013-01-15 18:41:00,72.8,64.8,30.06,East,80,0.0,0.0,76,0.00,,OVC,0.00,WeatherDisplay:10.37,2013-01-15 23:41:00,
2013-01-15 18:46:00,72.7,64.7,30.06,East,80,0.0,0.0,76,0.00,,OVC,0.00,WeatherDisplay:10.37,2013-01-15 23:46:00,
2013-01-15 18:51:00,72.5,64.9,30.06,East,80,0.0,0.0,77,0.00,,OVC,0.00,WeatherDisplay:10.37,2013-01-15 23:51:00,
2013-01-15 18:56:00,72.3,64.7,30.06,East,79,0.0,0.0,77,0.00,,OVC,0.00,WeatherDisplay:10.37,2013-01-15 23:56:00,
2013-01-15 19:01:00,72.1,64.5,30.07,East,79,0.0,0.0,77,0.00,,OVC,0.00,WeatherDisplay:10.37,2013-01-16 00:01:00,
2013-01-15 19:06:00,72.1,64.5,30.07,ENE,78,0.0,0.0,77,0.00,,OVC,0.00,WeatherDisplay:10.37,2013-01-16 00:06:00,
2013-01-15 19:11:00,72.0,64.8,30.07,ENE,78,0.0,0.0,78,0.00,,OVC,0.00,WeatherDisplay:10.37,2013-01-16 00:11:00,
2013-01-15 19:16:00,71.8,64.6,30.06,East,79,0.0,0.0,78,0.00,,OVC,0.00,WeatherDisplay:10.37,2013-01-16 00:16:00,
2013-01-15 19:21:00,71.6,64.4,30.06,ENE,78,0.0,0.0,78,0.00,,OVC,0.00,WeatherDisplay:10.37,2013-01-16 00:21:00,
2013-01-15 19:26:00,71.5,64.3,30.06,ENE,78,0.0,0.0,78,0.00,,OVC,0.00,WeatherDisplay:10.37,2013-01-16 00:26:00,
2013-01-15 19:31:00,71.5,64.3,30.06,ENE,78,0.0,0.0,78,0.00,,OVC,0.00,WeatherDisplay:10.37,2013-01-16 00:31:00,
2013-01-15 19:36:00,71.3,64.1,30.06,ENE,78,0.0,0.0,78,0.00,,OVC,0.00,WeatherDisplay:10.37,2013-01-16 00:36:00,
2013-01-15 19:41:00,71.1,63.9,30.06,ENE,78,0.0,0.0,78,0.00,,OVC,0.00,WeatherDisplay:10.37,2013-01-16 00:41:00,
2013-01-15 19:46:00,71.1,63.9,30.06,ENE,78,0.0,0.0,78,0.00,,OVC,0.00,WeatherDisplay:10.37,2013-01-16 00:46:00,
2013-01-15 19:51:00,70.9,64.1,30.06,ENE,78,0.0,0.0,79,0.00,,OVC,0.00,WeatherDisplay:10.37,2013-01-16 00:51:00,
2013-01-15 19:56:00,70.8,64.0,30.06,ENE,78,0.0,0.0,79,0.00,,OVC,0.00,WeatherDisplay:10.37,2013-01-16 00:56:00,
2013-01-15 20:01:00,70.8,64.0,30.06,ENE,78,0.0,0.0,79,0.00,,OVC,0.00,WeatherDisplay:10.37,2013-01-16 01:01:00,
2013-01-15 20:06:00,70.6,63.8,30.06,ENE,78,0.0,0.0,79,0.00,,OVC,0.00,WeatherDisplay:10.37,2013-01-16 01:06:00,
2013-01-15 20:11:00,70.4,63.6,30.06,ENE,78,0.0,0.0,79,0.00,,OVC,0.00,WeatherDisplay:10.37,2013-01-16 01:11:00,
2013-01-15 20:16:00,70.4,63.6,30.05,ENE,78,0.0,0.0,79,0.00,,OVC,0.00,WeatherDisplay:10.37,2013-01-16 01:16:00,
2013-01-15 20:21:00,70.3,63.5,30.05,ENE,78,0.0,0.0,79,0.00,,OVC,0.00,WeatherDisplay:10.37,2013-01-16 01:21:00,
2013-01-15 20:26:00,70.3,63.5,30.05,ENE,78,0.0,0.0,79,0.00,,OVC,0.00,WeatherDisplay:10.37,2013-01-16 01:26:00,
2013-01-15 20:31:00,70.1,63.3,30.05,ENE,78,0.0,0.0,79,0.00,,OVC,0.00,WeatherDisplay:10.37,2013-01-16 01:31:00,
2013-01-15 20:36:00,70.1,63.3,30.05,ENE,78,0.0,0.0,79,0.00,,OVC,0.00,WeatherDisplay:10.37,2013-01-16 01:36:00,
2013-01-15 20:41:00,70.1,63.3,30.05,ENE,78,0.0,0.0,79,0.00,,OVC,0.00,WeatherDisplay:10.37,2013-01-16 01:41:00,
2013-01-15 20:46:00,70.1,63.3,30.05,ENE,78,0.0,0.0,79,0.00,,OVC,0.00,WeatherDisplay:10.37,2013-01-16 01:46:00,
2013-01-15 20:51:00,70.1,63.3,30.05,ENE,78,0.0,0.0,79,0.00,,OVC,0.00,WeatherDisplay:10.37,2013-01-16 01:51:00,
2013-01-15 20:56:00,70.1,63.3,30.05,ENE,78,0.0,0.0,79,0.00,,OVC,0.00,WeatherDisplay:10.37,2013-01-16 01:56:00,
2013-01-15 21:01:00,69.9,63.1,30.04,East,79,0.0,0.0,79,0.00,,OVC,0.00,WeatherDisplay:10.37,2013-01-16 02:01:00,
2013-01-15 21:06:00,69.9,63.1,30.04,ENE,78,0.0,0.0,79,0.00,,OVC,0.00,WeatherDisplay:10.37,2013-01-16 02:06:00,
2013-01-15 21:11:00,69.9,63.1,30.04,ENE,78,0.0,0.0,79,0.00,,OVC,0.00,WeatherDisplay:10.37,2013-01-16 02:11:00,
2013-01-15 21:16:00,69.9,63.1,30.04,ENE,78,0.0,0.0,79,0.00,,OVC,0.00,WeatherDisplay:10.37,2013-01-16 02:16:00,
2013-01-15 21:21:00,69.8,63.0,30.04,ENE,78,0.0,0.0,79,0.00,,OVC,0.00,WeatherDisplay:10.37,2013-01-16 02:21:00,
2013-01-15 21:26:00,69.8,63.0,30.04,ENE,78,0.0,0.0,79,0.00,,OVC,0.00,WeatherDisplay:10.37,2013-01-16 02:26:00,
2013-01-15 21:31:00,69.4,62.6,30.04,ENE,78,0.0,0.0,79,0.00,,OVC,0.00,WeatherDisplay:10.37,2013-01-16 02:31:00,
2013-01-15 21:36:00,69.3,62.9,30.04,ENE,78,0.0,0.0,80,0.00,,OVC,0.00,WeatherDisplay:10.37,2013-01-16 02:36:00,
2013-01-15 21:41:00,69.1,62.7,30.04,ENE,78,0.0,0.0,80,0.00,,OVC,0.00,WeatherDisplay:10.37,2013-01-16 02:41:00,
2013-01-15 21:46:00,68.9,62.8,30.03,ENE,78,0.0,0.0,81,0.00,,OVC,0.00,WeatherDisplay:10.37,2013-01-16 02:46:00,
2013-01-15 21:51:00,68.8,62.7,30.03,ENE,78,0.0,0.0,81,0.00,,OVC,0.00,WeatherDisplay:10.37,2013-01-16 02:51:00,
2013-01-15 21:56:00,68.4,62.7,30.03,ENE,78,0.0,0.0,82,0.00,,OVC,0.00,WeatherDisplay:10.37,2013-01-16 02:56:00,
2013-01-15 22:01:00,68.3,62.6,30.03,ENE,78,0.0,0.0,82,0.00,,OVC,0.00,WeatherDisplay:10.37,2013-01-16 03:01:00,
2013-01-15 22:06:00,68.1,62.4,30.03,ENE,78,0.0,0.0,82,0.00,,OVC,0.00,WeatherDisplay:10.37,2013-01-16 03:06:00,
2013-01-15 22:11:00,67.9,62.5,30.03,ENE,78,0.0,0.0,83,0.00,,OVC,0.00,WeatherDisplay:10.37,2013-01-16 03:11:00,
2013-01-15 22:16:00,67.8,62.4,30.02,ENE,78,0.0,0.0,83,0.00,,OVC,0.00,WeatherDisplay:10.37,2013-01-16 03:16:00,
2013-01-15 22:22:00,67.4,62.4,30.02,ENE,78,0.0,0.0,84,0.00,,OVC,0.00,WeatherDisplay:10.37,2013-01-16 03:22:00,
2013-01-15 22:27:00,67.3,62.3,30.02,ENE,78,0.0,0.0,84,0.00,,OVC,0.00,WeatherDisplay:10.37,2013-01-16 03:27:00,
2013-01-15 22:32:00,67.1,62.4,30.02,ENE,78,0.0,0.0,85,0.00,,OVC,0.00,WeatherDisplay:10.37,2013-01-16 03:32:00,
2013-01-15 22:37:00,66.9,62.2,30.02,ENE,78,0.0,0.0,85,0.00,,OVC,0.00,WeatherDisplay:10.37,2013-01-16 03:37:00,
2013-01-15 22:42:00,66.9,62.2,30.02,ENE,78,0.0,0.0,85,0.00,,OVC,0.00,WeatherDisplay:10.37,2013-01-16 03:42:00,
2013-01-15 22:47:00,66.6,61.9,30.02,ENE,78,0.0,0.0,85,0.00,,OVC,0.00,WeatherDisplay:10.37,2013-01-16 03:47:00,
2013-01-15 22:52:00,66.4,62.1,30.02,ENE,78,0.0,0.0,86,0.00,,OVC,0.00,WeatherDisplay:10.37,2013-01-16 03:52:00,
2013-01-15 22:57:00,66.3,62.0,30.02,ENE,78,0.0,0.0,86,0.00,,OVC,0.00,WeatherDisplay:10.37,2013-01-16 03:57:00,
2013-01-15 23:02:00,66.1,62.1,30.02,ENE,78,0.0,0.0,87,0.00,,OVC,0.00,WeatherDisplay:10.37,2013-01-16 04:02:00,
2013-01-15 23:07:00,66.0,62.0,30.02,ENE,78,0.0,0.0,87,0.00,,OVC,0.00,WeatherDisplay:10.37,2013-01-16 04:07:00,
2013-01-15 23:12:00,65.8,61.8,30.02,ENE,78,0.0,0.0,87,0.00,,OVC,0.00,WeatherDisplay:10.37,2013-01-16 04:12:00,
2013-01-15 23:17:00,65.6,61.6,30.02,ENE,78,0.0,0.0,87,0.00,,OVC,0.00,WeatherDisplay:10.37,2013-01-16 04:17:00,
2013-01-15 23:22:00,65.3,61.3,30.02,ENE,78,0.0,0.0,87,0.00,,OVC,0.00,WeatherDisplay:10.37,2013-01-16 04:22:00,
2013-01-15 23:27:00,65.2,61.6,30.02,ENE,78,0.0,0.0,88,0.00,,OVC,0.00,WeatherDisplay:10.37,2013-01-16 04:27:00,
2013-01-15 23:32:00,65.0,61.4,30.01,ENE,78,0.0,0.0,88,0.00,,OVC,0.00,WeatherDisplay:10.37,2013-01-16 04:32:00,
2013-01-15 23:37:00,65.0,61.4,30.01,ENE,78,0.0,0.0,88,0.00,,OVC,0.00,WeatherDisplay:10.37,2013-01-16 04:37:00,
2013-01-15 23:42:00,64.8,61.5,30.01,ENE,78,0.0,0.0,89,0.00,,OVC,0.00,WeatherDisplay:10.37,2013-01-16 04:42:00,
2013-01-15 23:47:00,64.8,61.5,30.02,ENE,78,0.0,0.0,89,0.00,,OVC,0.00,WeatherDisplay:10.37,2013-01-16 04:47:00,
2013-01-15 23:52:00,64.7,61.4,30.02,ENE,78,0.0,0.0,89,0.00,,OVC,0.00,WeatherDisplay:10.37,2013-01-16 04:52:00,
2013-01-15 23:57:00,64.5,61.2,30.02,ENE,78,0.0,0.0,89,0.00,,OVC,0.00,WeatherDisplay:10.37,2013-01-16 04:57:00,